sensor_id;sensor_type;location;lat;lon;timestamp;temperature;humidity
3298;DHT22;1661;53.572;10.174;2023-02-21T00:00:41;9.80;98.80
3298;DHT22;1661;53.572;10.174;2023-02-21T00:03:26;9.70;98.70
3298;DHT22;1661;53.572;10.174;2023-02-21T00:06:10;9.80;98.70
3298;DHT22;1661;53.572;10.174;2023-02-21T00:08:54;9.80;98.50
3298;DHT22;1661;53.572;10.174;2023-02-21T00:11:40;9.80;98.60
3298;DHT22;1661;53.572;10.174;2023-02-21T00:14:26;9.80;98.30
3298;DHT22;1661;53.572;10.174;2023-02-21T00:17:11;9.80;98.20
3298;DHT22;1661;53.572;10.174;2023-02-21T00:19:55;9.70;98.40
3298;DHT22;1661;53.572;10.174;2023-02-21T00:22:48;9.80;98.60
3298;DHT22;1661;53.572;10.174;2023-02-21T00:25:32;9.80;98.20
3298;DHT22;1661;53.572;10.174;2023-02-21T00:28:16;9.80;98.30
3298;DHT22;1661;53.572;10.174;2023-02-21T00:31:02;9.70;98.30
3298;DHT22;1661;53.572;10.174;2023-02-21T00:33:55;9.70;98.50
3298;DHT22;1661;53.572;10.174;2023-02-21T00:36:39;9.60;98.60
3298;DHT22;1661;53.572;10.174;2023-02-21T00:39:23;9.70;98.60
3298;DHT22;1661;53.572;10.174;2023-02-21T00:42:07;9.80;98.30
3298;DHT22;1661;53.572;10.174;2023-02-21T00:44:51;9.70;98.40
3298;DHT22;1661;53.572;10.174;2023-02-21T00:47:37;9.80;98.20
3298;DHT22;1661;53.572;10.174;2023-02-21T00:50:21;9.80;97.90
3298;DHT22;1661;53.572;10.174;2023-02-21T00:53:05;9.80;98.00
3298;DHT22;1661;53.572;10.174;2023-02-21T00:55:50;9.70;97.70
3298;DHT22;1661;53.572;10.174;2023-02-21T00:58:34;9.70;97.90
3298;DHT22;1661;53.572;10.174;2023-02-21T01:01:18;9.50;98.70
3298;DHT22;1661;53.572;10.174;2023-02-21T01:04:03;9.60;98.70
3298;DHT22;1661;53.572;10.174;2023-02-21T01:06:49;9.50;98.70
3298;DHT22;1661;53.572;10.174;2023-02-21T01:09:34;9.40;98.90
3298;DHT22;1661;53.572;10.174;2023-02-21T01:12:18;9.50;99.10
3298;DHT22;1661;53.572;10.174;2023-02-21T01:15:03;9.50;98.90
3298;DHT22;1661;53.572;10.174;2023-02-21T01:17:47;9.50;98.70
3298;DHT22;1661;53.572;10.174;2023-02-21T01:20:33;9.50;98.90
3298;DHT22;1661;53.572;10.174;2023-02-21T01:23:23;9.50;98.70
3298;DHT22;1661;53.572;10.174;2023-02-21T01:26:08;9.60;98.70
3298;DHT22;1661;53.572;10.174;2023-02-21T01:28:56;9.60;98.30
3298;DHT22;1661;53.572;10.174;2023-02-21T01:31:40;9.60;98.20
3298;DHT22;1661;53.572;10.174;2023-02-21T01:34:24;9.60;98.10
3298;DHT22;1661;53.572;10.174;2023-02-21T01:37:10;9.60;98.00
3298;DHT22;1661;53.572;10.174;2023-02-21T01:39:54;9.60;98.20
3298;DHT22;1661;53.572;10.174;2023-02-21T01:42:38;9.60;98.20
3298;DHT22;1661;53.572;10.174;2023-02-21T01:45:47;9.50;98.00
3298;DHT22;1661;53.572;10.174;2023-02-21T01:48:32;9.50;98.20
3298;DHT22;1661;53.572;10.174;2023-02-21T01:51:19;9.50;98.40
3298;DHT22;1661;53.572;10.174;2023-02-21T01:54:07;9.50;98.40
3298;DHT22;1661;53.572;10.174;2023-02-21T01:56:53;9.50;98.20
3298;DHT22;1661;53.572;10.174;2023-02-21T01:59:38;9.60;98.20
3298;DHT22;1661;53.572;10.174;2023-02-21T02:02:28;9.60;98.10
3298;DHT22;1661;53.572;10.174;2023-02-21T02:05:14;9.60;97.60
3298;DHT22;1661;53.572;10.174;2023-02-21T02:07:58;9.50;97.80
3298;DHT22;1661;53.572;10.174;2023-02-21T02:10:45;9.60;97.90
3298;DHT22;1661;53.572;10.174;2023-02-21T02:13:42;9.60;97.80
3298;DHT22;1661;53.572;10.174;2023-02-21T02:16:18;9.60;98.00
3298;DHT22;1661;53.572;10.174;2023-02-21T02:18:57;9.70;97.90
3298;DHT22;1661;53.572;10.174;2023-02-21T02:22:07;9.70;97.70
3298;DHT22;1661;53.572;10.174;2023-02-21T02:24:55;9.70;97.50
3298;DHT22;1661;53.572;10.174;2023-02-21T02:30:48;9.60;97.70
3298;DHT22;1661;53.572;10.174;2023-02-21T02:33:45;9.60;97.70
3298;DHT22;1661;53.572;10.174;2023-02-21T02:36:20;9.50;97.70
3298;DHT22;1661;53.572;10.174;2023-02-21T02:38:56;9.50;97.60
3298;DHT22;1661;53.572;10.174;2023-02-21T02:41:36;9.50;97.90
3298;DHT22;1661;53.572;10.174;2023-02-21T02:44:12;9.50;97.90
3298;DHT22;1661;53.572;10.174;2023-02-21T02:46:48;9.50;97.70
3298;DHT22;1661;53.572;10.174;2023-02-21T02:49:17;9.50;97.80
3298;DHT22;1661;53.572;10.174;2023-02-21T02:51:47;9.50;98.00
3298;DHT22;1661;53.572;10.174;2023-02-21T02:54:14;9.50;98.20
3298;DHT22;1661;53.572;10.174;2023-02-21T02:56:41;9.50;97.80
3298;DHT22;1661;53.572;10.174;2023-02-21T02:59:13;9.50;98.10
3298;DHT22;1661;53.572;10.174;2023-02-21T03:02:04;9.60;97.90
3298;DHT22;1661;53.572;10.174;2023-02-21T03:05:05;9.50;97.90
3298;DHT22;1661;53.572;10.174;2023-02-21T03:07:42;9.60;98.10
3298;DHT22;1661;53.572;10.174;2023-02-21T03:10:18;9.50;97.90
3298;DHT22;1661;53.572;10.174;2023-02-21T03:12:50;9.50;97.90
3298;DHT22;1661;53.572;10.174;2023-02-21T03:15:22;9.60;97.80
3298;DHT22;1661;53.572;10.174;2023-02-21T03:17:55;9.50;97.80
3298;DHT22;1661;53.572;10.174;2023-02-21T03:20:24;9.60;97.60
3298;DHT22;1661;53.572;10.174;2023-02-21T03:22:54;9.40;97.90
3298;DHT22;1661;53.572;10.174;2023-02-21T03:25:22;9.50;98.10
3298;DHT22;1661;53.572;10.174;2023-02-21T03:27:52;9.50;97.60
3298;DHT22;1661;53.572;10.174;2023-02-21T03:30:20;9.40;98.30
3298;DHT22;1661;53.572;10.174;2023-02-21T03:32:49;9.30;98.00
3298;DHT22;1661;53.572;10.174;2023-02-21T03:35:17;9.40;98.00
3298;DHT22;1661;53.572;10.174;2023-02-21T03:37:56;9.40;97.90
3298;DHT22;1661;53.572;10.174;2023-02-21T03:40:26;9.40;97.60
3298;DHT22;1661;53.572;10.174;2023-02-21T03:42:55;9.50;97.60
3298;DHT22;1661;53.572;10.174;2023-02-21T03:45:22;9.50;97.50
3298;DHT22;1661;53.572;10.174;2023-02-21T03:47:49;9.50;97.40
3298;DHT22;1661;53.572;10.174;2023-02-21T03:50:16;9.60;97.30
3298;DHT22;1661;53.572;10.174;2023-02-21T03:52:43;9.60;97.00
3298;DHT22;1661;53.572;10.174;2023-02-21T03:55:11;9.60;96.50
3298;DHT22;1661;53.572;10.174;2023-02-21T03:57:38;9.50;96.20
3298;DHT22;1661;53.572;10.174;2023-02-21T04:00:06;9.40;96.50
3298;DHT22;1661;53.572;10.174;2023-02-21T04:02:33;9.50;96.60
3298;DHT22;1661;53.572;10.174;2023-02-21T04:05:01;9.50;96.50
3298;DHT22;1661;53.572;10.174;2023-02-21T04:07:27;9.40;96.50
3298;DHT22;1661;53.572;10.174;2023-02-21T04:09:54;9.30;96.80
3298;DHT22;1661;53.572;10.174;2023-02-21T04:12:25;9.40;96.70
3298;DHT22;1661;53.572;10.174;2023-02-21T04:14:51;9.40;96.70
3298;DHT22;1661;53.572;10.174;2023-02-21T04:17:21;9.40;96.60
3298;DHT22;1661;53.572;10.174;2023-02-21T04:19:47;9.30;96.40
3298;DHT22;1661;53.572;10.174;2023-02-21T04:22:14;9.30;96.50
3298;DHT22;1661;53.572;10.174;2023-02-21T04:24:44;9.10;96.90
3298;DHT22;1661;53.572;10.174;2023-02-21T04:27:12;9.00;97.90
3298;DHT22;1661;53.572;10.174;2023-02-21T04:29:40;9.00;98.00
3298;DHT22;1661;53.572;10.174;2023-02-21T04:32:10;9.00;97.90
3298;DHT22;1661;53.572;10.174;2023-02-21T04:34:37;9.10;97.70
3298;DHT22;1661;53.572;10.174;2023-02-21T04:37:12;9.10;97.60
3298;DHT22;1661;53.572;10.174;2023-02-21T04:39:39;9.10;97.90
3298;DHT22;1661;53.572;10.174;2023-02-21T04:42:06;9.20;97.70
3298;DHT22;1661;53.572;10.174;2023-02-21T04:44:34;9.30;97.50
3298;DHT22;1661;53.572;10.174;2023-02-21T04:47:02;9.30;97.20
3298;DHT22;1661;53.572;10.174;2023-02-21T04:49:29;9.20;96.90
3298;DHT22;1661;53.572;10.174;2023-02-21T04:51:55;9.30;96.80
3298;DHT22;1661;53.572;10.174;2023-02-21T04:54:25;9.30;96.50
3298;DHT22;1661;53.572;10.174;2023-02-21T04:56:51;9.20;95.90
3298;DHT22;1661;53.572;10.174;2023-02-21T04:59:18;9.10;95.80
3298;DHT22;1661;53.572;10.174;2023-02-21T05:01:45;9.10;95.40
3298;DHT22;1661;53.572;10.174;2023-02-21T05:04:13;9.00;94.90
3298;DHT22;1661;53.572;10.174;2023-02-21T05:06:40;8.90;95.20
3298;DHT22;1661;53.572;10.174;2023-02-21T05:09:07;8.90;95.00
3298;DHT22;1661;53.572;10.174;2023-02-21T05:11:33;8.80;94.50
3298;DHT22;1661;53.572;10.174;2023-02-21T05:14:00;8.70;94.40
3298;DHT22;1661;53.572;10.174;2023-02-21T05:16:27;8.60;94.40
3298;DHT22;1661;53.572;10.174;2023-02-21T05:18:54;8.60;94.30
3298;DHT22;1661;53.572;10.174;2023-02-21T05:21:22;8.60;94.40
3298;DHT22;1661;53.572;10.174;2023-02-21T05:23:49;8.60;94.50
3298;DHT22;1661;53.572;10.174;2023-02-21T05:26:23;8.60;94.20
3298;DHT22;1661;53.572;10.174;2023-02-21T05:28:56;8.60;93.90
3298;DHT22;1661;53.572;10.174;2023-02-21T05:31:23;8.70;94.00
3298;DHT22;1661;53.572;10.174;2023-02-21T05:33:50;8.80;93.70
3298;DHT22;1661;53.572;10.174;2023-02-21T05:36:17;8.80;93.40
3298;DHT22;1661;53.572;10.174;2023-02-21T05:38:51;8.80;93.30
3298;DHT22;1661;53.572;10.174;2023-02-21T05:41:19;8.80;93.40
3298;DHT22;1661;53.572;10.174;2023-02-21T05:43:47;8.80;93.50
3298;DHT22;1661;53.572;10.174;2023-02-21T05:46:19;8.70;93.50
3298;DHT22;1661;53.572;10.174;2023-02-21T05:48:46;8.80;93.60
3298;DHT22;1661;53.572;10.174;2023-02-21T05:51:13;8.80;93.30
3298;DHT22;1661;53.572;10.174;2023-02-21T05:53:40;8.80;93.10
3298;DHT22;1661;53.572;10.174;2023-02-21T05:56:09;8.70;93.20
3298;DHT22;1661;53.572;10.174;2023-02-21T05:58:39;8.70;93.30
3298;DHT22;1661;53.572;10.174;2023-02-21T06:01:06;8.70;93.50
3298;DHT22;1661;53.572;10.174;2023-02-21T06:03:33;8.50;93.50
3298;DHT22;1661;53.572;10.174;2023-02-21T06:06:00;8.60;93.90
3298;DHT22;1661;53.572;10.174;2023-02-21T06:08:44;8.60;93.70
3298;DHT22;1661;53.572;10.174;2023-02-21T06:11:13;8.60;93.70
3298;DHT22;1661;53.572;10.174;2023-02-21T06:13:40;8.60;93.30
3298;DHT22;1661;53.572;10.174;2023-02-21T06:16:07;8.60;93.30
3298;DHT22;1661;53.572;10.174;2023-02-21T06:18:34;8.60;93.30
3298;DHT22;1661;53.572;10.174;2023-02-21T06:21:04;8.60;93.20
3298;DHT22;1661;53.572;10.174;2023-02-21T06:23:31;8.60;93.10
3298;DHT22;1661;53.572;10.174;2023-02-21T06:26:00;8.50;92.90
3298;DHT22;1661;53.572;10.174;2023-02-21T06:28:29;8.40;92.90
3298;DHT22;1661;53.572;10.174;2023-02-21T06:30:56;8.30;93.10
3298;DHT22;1661;53.572;10.174;2023-02-21T06:33:24;8.30;93.20
3298;DHT22;1661;53.572;10.174;2023-02-21T06:35:50;8.30;93.10
3298;DHT22;1661;53.572;10.174;2023-02-21T06:38:17;8.30;93.20
3298;DHT22;1661;53.572;10.174;2023-02-21T06:40:47;8.20;92.90
3298;DHT22;1661;53.572;10.174;2023-02-21T06:43:14;8.30;92.90
3298;DHT22;1661;53.572;10.174;2023-02-21T06:45:42;8.20;93.00
3298;DHT22;1661;53.572;10.174;2023-02-21T06:48:13;8.20;92.80
3298;DHT22;1661;53.572;10.174;2023-02-21T06:50:40;8.20;92.90
3298;DHT22;1661;53.572;10.174;2023-02-21T06:53:07;8.20;93.00
3298;DHT22;1661;53.572;10.174;2023-02-21T06:55:34;8.20;92.70
3298;DHT22;1661;53.572;10.174;2023-02-21T06:58:00;8.20;92.90
3298;DHT22;1661;53.572;10.174;2023-02-21T07:00:27;8.20;92.70
3298;DHT22;1661;53.572;10.174;2023-02-21T07:02:58;8.30;92.80
3298;DHT22;1661;53.572;10.174;2023-02-21T07:05:25;8.20;92.40
3298;DHT22;1661;53.572;10.174;2023-02-21T07:07:53;8.20;92.20
3298;DHT22;1661;53.572;10.174;2023-02-21T07:10:20;8.30;92.20
3298;DHT22;1661;53.572;10.174;2023-02-21T07:12:47;8.30;92.00
3298;DHT22;1661;53.572;10.174;2023-02-21T07:15:14;8.30;91.90
3298;DHT22;1661;53.572;10.174;2023-02-21T07:17:40;8.30;92.30
3298;DHT22;1661;53.572;10.174;2023-02-21T07:20:09;8.30;92.00
3298;DHT22;1661;53.572;10.174;2023-02-21T07:22:36;8.40;92.10
3298;DHT22;1661;53.572;10.174;2023-02-21T07:25:04;8.40;91.70
3298;DHT22;1661;53.572;10.174;2023-02-21T07:27:31;8.40;91.50
3298;DHT22;1661;53.572;10.174;2023-02-21T07:29:57;8.40;91.50
3298;DHT22;1661;53.572;10.174;2023-02-21T07:32:24;8.40;91.10
3298;DHT22;1661;53.572;10.174;2023-02-21T07:34:51;8.50;91.50
3298;DHT22;1661;53.572;10.174;2023-02-21T07:37:26;8.40;91.50
3298;DHT22;1661;53.572;10.174;2023-02-21T07:39:52;8.40;91.80
3298;DHT22;1661;53.572;10.174;2023-02-21T07:42:19;8.40;92.00
3298;DHT22;1661;53.572;10.174;2023-02-21T07:44:54;8.40;92.20
3298;DHT22;1661;53.572;10.174;2023-02-21T07:47:22;8.50;92.00
3298;DHT22;1661;53.572;10.174;2023-02-21T07:49:49;8.60;92.00
3298;DHT22;1661;53.572;10.174;2023-02-21T07:52:16;8.70;91.60
3298;DHT22;1661;53.572;10.174;2023-02-21T07:54:45;8.80;91.80
3298;DHT22;1661;53.572;10.174;2023-02-21T07:57:15;8.80;91.20
3298;DHT22;1661;53.572;10.174;2023-02-21T07:59:46;8.80;91.00
3298;DHT22;1661;53.572;10.174;2023-02-21T08:02:13;8.80;91.20
3298;DHT22;1661;53.572;10.174;2023-02-21T08:04:40;8.90;91.00
3298;DHT22;1661;53.572;10.174;2023-02-21T08:07:08;8.90;90.50
3298;DHT22;1661;53.572;10.174;2023-02-21T08:09:35;8.90;90.40
3298;DHT22;1661;53.572;10.174;2023-02-21T08:12:04;9.00;90.50
3298;DHT22;1661;53.572;10.174;2023-02-21T08:14:31;9.10;90.40
3298;DHT22;1661;53.572;10.174;2023-02-21T08:16:58;9.10;90.20
3298;DHT22;1661;53.572;10.174;2023-02-21T08:19:25;9.10;89.70
3298;DHT22;1661;53.572;10.174;2023-02-21T08:21:54;9.10;90.00
3298;DHT22;1661;53.572;10.174;2023-02-21T08:24:20;9.30;90.10
3298;DHT22;1661;53.572;10.174;2023-02-21T08:26:50;9.20;89.00
3298;DHT22;1661;53.572;10.174;2023-02-21T08:29:18;9.30;89.40
3298;DHT22;1661;53.572;10.174;2023-02-21T08:31:45;9.30;88.80
3298;DHT22;1661;53.572;10.174;2023-02-21T08:34:12;9.30;88.30
3298;DHT22;1661;53.572;10.174;2023-02-21T08:36:42;9.30;88.30
3298;DHT22;1661;53.572;10.174;2023-02-21T08:39:09;9.20;88.30
3298;DHT22;1661;53.572;10.174;2023-02-21T08:41:40;9.20;88.30
3298;DHT22;1661;53.572;10.174;2023-02-21T08:44:12;9.30;88.40
3298;DHT22;1661;53.572;10.174;2023-02-21T08:46:42;9.40;88.50
3298;DHT22;1661;53.572;10.174;2023-02-21T08:49:09;9.50;87.80
3298;DHT22;1661;53.572;10.174;2023-02-21T08:51:36;9.50;87.10
3298;DHT22;1661;53.572;10.174;2023-02-21T08:54:04;9.50;87.40
3298;DHT22;1661;53.572;10.174;2023-02-21T08:56:31;9.60;87.80
3298;DHT22;1661;53.572;10.174;2023-02-21T08:59:02;9.50;86.40
3298;DHT22;1661;53.572;10.174;2023-02-21T09:01:33;9.50;87.00
3298;DHT22;1661;53.572;10.174;2023-02-21T09:04:02;9.50;87.00
3298;DHT22;1661;53.572;10.174;2023-02-21T09:06:29;9.50;86.80
3298;DHT22;1661;53.572;10.174;2023-02-21T09:08:56;9.50;86.80
3298;DHT22;1661;53.572;10.174;2023-02-21T09:11:26;9.50;87.40
3298;DHT22;1661;53.572;10.174;2023-02-21T09:13:53;9.50;86.90
3298;DHT22;1661;53.572;10.174;2023-02-21T09:16:20;9.60;87.20
3298;DHT22;1661;53.572;10.174;2023-02-21T09:18:59;9.70;87.20
3298;DHT22;1661;53.572;10.174;2023-02-21T09:21:33;9.70;85.30
3298;DHT22;1661;53.572;10.174;2023-02-21T09:24:03;9.70;86.00
3298;DHT22;1661;53.572;10.174;2023-02-21T09:26:30;9.80;86.00
3298;DHT22;1661;53.572;10.174;2023-02-21T09:29:00;9.80;86.50
3298;DHT22;1661;53.572;10.174;2023-02-21T09:31:29;9.90;85.60
3298;DHT22;1661;53.572;10.174;2023-02-21T09:33:56;10.00;86.10
3298;DHT22;1661;53.572;10.174;2023-02-21T09:36:23;10.00;85.50
3298;DHT22;1661;53.572;10.174;2023-02-21T09:38:51;9.80;84.10
3298;DHT22;1661;53.572;10.174;2023-02-21T09:41:18;9.90;85.10
3298;DHT22;1661;53.572;10.174;2023-02-21T09:44:00;10.10;85.60
3298;DHT22;1661;53.572;10.174;2023-02-21T09:46:33;10.20;84.70
3298;DHT22;1661;53.572;10.174;2023-02-21T09:49:04;10.10;84.10
3298;DHT22;1661;53.572;10.174;2023-02-21T09:51:33;10.30;84.70
3298;DHT22;1661;53.572;10.174;2023-02-21T09:54:04;10.40;84.60
3298;DHT22;1661;53.572;10.174;2023-02-21T09:56:34;10.50;83.90
3298;DHT22;1661;53.572;10.174;2023-02-21T09:59:02;10.60;83.60
3298;DHT22;1661;53.572;10.174;2023-02-21T10:01:41;10.70;83.20
3298;DHT22;1661;53.572;10.174;2023-02-21T10:04:14;10.80;82.90
3298;DHT22;1661;53.572;10.174;2023-02-21T10:06:50;10.90;82.30
3298;DHT22;1661;53.572;10.174;2023-02-21T10:09:32;11.10;82.70
3298;DHT22;1661;53.572;10.174;2023-02-21T10:12:14;11.20;82.30
3298;DHT22;1661;53.572;10.174;2023-02-21T10:14:58;11.20;80.40
3298;DHT22;1661;53.572;10.174;2023-02-21T10:17:33;11.20;79.30
3298;DHT22;1661;53.572;10.174;2023-02-21T10:20:05;11.20;79.40
3298;DHT22;1661;53.572;10.174;2023-02-21T10:22:38;11.20;78.50
3298;DHT22;1661;53.572;10.174;2023-02-21T10:25:19;11.30;78.50
3298;DHT22;1661;53.572;10.174;2023-02-21T10:27:46;11.20;78.10
3298;DHT22;1661;53.572;10.174;2023-02-21T10:30:23;11.20;78.90
3298;DHT22;1661;53.572;10.174;2023-02-21T10:32:53;11.30;79.20
3298;DHT22;1661;53.572;10.174;2023-02-21T10:35:23;11.40;78.90
3298;DHT22;1661;53.572;10.174;2023-02-21T10:37:52;11.40;77.80
3298;DHT22;1661;53.572;10.174;2023-02-21T10:40:28;11.60;78.70
3298;DHT22;1661;53.572;10.174;2023-02-21T10:43:01;11.80;77.70
3298;DHT22;1661;53.572;10.174;2023-02-21T10:45:33;11.80;75.10
3298;DHT22;1661;53.572;10.174;2023-02-21T10:48:03;11.80;74.60
3298;DHT22;1661;53.572;10.174;2023-02-21T10:50:42;11.80;74.60
3298;DHT22;1661;53.572;10.174;2023-02-21T10:53:25;11.80;76.30
3298;DHT22;1661;53.572;10.174;2023-02-21T10:56:11;11.90;76.00
3298;DHT22;1661;53.572;10.174;2023-02-21T10:58:44;12.00;76.20
3298;DHT22;1661;53.572;10.174;2023-02-21T11:01:13;12.00;74.30
3298;DHT22;1661;53.572;10.174;2023-02-21T11:03:45;12.00;74.50
3298;DHT22;1661;53.572;10.174;2023-02-21T11:06:31;12.00;75.20
3298;DHT22;1661;53.572;10.174;2023-02-21T11:08:59;12.10;75.10
3298;DHT22;1661;53.572;10.174;2023-02-21T11:11:36;12.00;74.10
3298;DHT22;1661;53.572;10.174;2023-02-21T11:14:21;12.20;74.60
3298;DHT22;1661;53.572;10.174;2023-02-21T11:17:15;12.20;73.80
3298;DHT22;1661;53.572;10.174;2023-02-21T11:19:48;12.30;75.40
3298;DHT22;1661;53.572;10.174;2023-02-21T11:22:21;12.40;75.70
3298;DHT22;1661;53.572;10.174;2023-02-21T11:24:58;12.60;75.90
3298;DHT22;1661;53.572;10.174;2023-02-21T11:27:30;12.60;75.30
3298;DHT22;1661;53.572;10.174;2023-02-21T11:29:58;12.60;74.00
3298;DHT22;1661;53.572;10.174;2023-02-21T11:32:30;12.60;73.10
3298;DHT22;1661;53.572;10.174;2023-02-21T11:35:02;12.50;74.50
3298;DHT22;1661;53.572;10.174;2023-02-21T11:37:30;12.50;77.40
3298;DHT22;1661;53.572;10.174;2023-02-21T11:39:57;12.40;72.80
3298;DHT22;1661;53.572;10.174;2023-02-21T11:42:29;12.30;74.50
3298;DHT22;1661;53.572;10.174;2023-02-21T11:45:20;12.30;75.60
3298;DHT22;1661;53.572;10.174;2023-02-21T11:47:55;12.40;72.60
3298;DHT22;1661;53.572;10.174;2023-02-21T11:50:25;12.60;75.20
3298;DHT22;1661;53.572;10.174;2023-02-21T11:52:58;12.90;74.50
3298;DHT22;1661;53.572;10.174;2023-02-21T11:55:26;12.90;73.90
3298;DHT22;1661;53.572;10.174;2023-02-21T11:58:08;13.00;72.40
3298;DHT22;1661;53.572;10.174;2023-02-21T12:00:45;13.10;74.40
3298;DHT22;1661;53.572;10.174;2023-02-21T12:03:47;13.20;74.00
3298;DHT22;1661;53.572;10.174;2023-02-21T12:06:22;13.40;72.10
3298;DHT22;1661;53.572;10.174;2023-02-21T12:08:57;13.50;70.30
3298;DHT22;1661;53.572;10.174;2023-02-21T12:11:37;13.40;70.00
3298;DHT22;1661;53.572;10.174;2023-02-21T12:17:20;13.50;72.80
3298;DHT22;1661;53.572;10.174;2023-02-21T12:20:05;13.30;70.70
3298;DHT22;1661;53.572;10.174;2023-02-21T12:22:45;13.10;70.20
3298;DHT22;1661;53.572;10.174;2023-02-21T12:25:21;13.00;72.30
3298;DHT22;1661;53.572;10.174;2023-02-21T12:27:53;12.90;71.40
3298;DHT22;1661;53.572;10.174;2023-02-21T12:30:34;12.90;74.10
3298;DHT22;1661;53.572;10.174;2023-02-21T12:33:17;12.70;75.80
3298;DHT22;1661;53.572;10.174;2023-02-21T12:36:01;12.70;75.20
3298;DHT22;1661;53.572;10.174;2023-02-21T12:41:44;12.10;74.50
3298;DHT22;1661;53.572;10.174;2023-02-21T12:44:16;12.20;77.00
3298;DHT22;1661;53.572;10.174;2023-02-21T12:46:51;12.10;77.10
3298;DHT22;1661;53.572;10.174;2023-02-21T12:49:25;12.20;77.10
3298;DHT22;1661;53.572;10.174;2023-02-21T12:51:57;12.30;77.10
3298;DHT22;1661;53.572;10.174;2023-02-21T12:54:38;12.30;78.20
3298;DHT22;1661;53.572;10.174;2023-02-21T12:57:10;12.40;76.40
3298;DHT22;1661;53.572;10.174;2023-02-21T12:59:47;12.40;76.80
3298;DHT22;1661;53.572;10.174;2023-02-21T13:02:24;12.20;77.10
3298;DHT22;1661;53.572;10.174;2023-02-21T13:04:57;12.00;76.80
3298;DHT22;1661;53.572;10.174;2023-02-21T13:07:31;12.20;78.40
3298;DHT22;1661;53.572;10.174;2023-02-21T13:10:03;12.10;77.60
3298;DHT22;1661;53.572;10.174;2023-02-21T13:12:37;12.20;77.30
3298;DHT22;1661;53.572;10.174;2023-02-21T13:15:16;12.00;75.50
3298;DHT22;1661;53.572;10.174;2023-02-21T13:17:49;11.90;77.30
3298;DHT22;1661;53.572;10.174;2023-02-21T13:20:20;12.00;78.30
3298;DHT22;1661;53.572;10.174;2023-02-21T13:26:29;12.00;76.30
3298;DHT22;1661;53.572;10.174;2023-02-21T13:28:58;12.10;78.10
3298;DHT22;1661;53.572;10.174;2023-02-21T13:31:27;12.20;77.00
3298;DHT22;1661;53.572;10.174;2023-02-21T13:34:02;12.10;76.40
3298;DHT22;1661;53.572;10.174;2023-02-21T13:36:42;11.90;74.70
3298;DHT22;1661;53.572;10.174;2023-02-21T13:39:12;11.60;74.30
3298;DHT22;1661;53.572;10.174;2023-02-21T13:41:43;11.70;77.80
3298;DHT22;1661;53.572;10.174;2023-02-21T13:44:17;11.60;76.30
3298;DHT22;1661;53.572;10.174;2023-02-21T13:47:11;11.50;76.00
3298;DHT22;1661;53.572;10.174;2023-02-21T13:49:48;11.60;76.90
3298;DHT22;1661;53.572;10.174;2023-02-21T13:53:02;11.60;77.70
3298;DHT22;1661;53.572;10.174;2023-02-21T13:55:30;11.60;74.20
3298;DHT22;1661;53.572;10.174;2023-02-21T13:58:28;11.70;76.60
3298;DHT22;1661;53.572;10.174;2023-02-21T14:03:56;11.70;72.90
3298;DHT22;1661;53.572;10.174;2023-02-21T14:06:40;11.60;72.80
3298;DHT22;1661;53.572;10.174;2023-02-21T14:09:25;11.60;77.20
3298;DHT22;1661;53.572;10.174;2023-02-21T14:11:52;11.80;78.20
3298;DHT22;1661;53.572;10.174;2023-02-21T14:14:24;11.70;73.00
3298;DHT22;1661;53.572;10.174;2023-02-21T14:16:59;11.40;76.30
3298;DHT22;1661;53.572;10.174;2023-02-21T14:19:32;11.60;78.50
3298;DHT22;1661;53.572;10.174;2023-02-21T14:22:04;11.60;76.50
3298;DHT22;1661;53.572;10.174;2023-02-21T14:24:38;11.50;77.70
3298;DHT22;1661;53.572;10.174;2023-02-21T14:27:35;11.50;77.80
3298;DHT22;1661;53.572;10.174;2023-02-21T14:30:31;11.40;76.90
3298;DHT22;1661;53.572;10.174;2023-02-21T14:33:21;11.40;78.90
3298;DHT22;1661;53.572;10.174;2023-02-21T14:35:57;11.50;78.90
3298;DHT22;1661;53.572;10.174;2023-02-21T14:38:27;11.50;78.10
3298;DHT22;1661;53.572;10.174;2023-02-21T14:41:09;11.40;77.50
3298;DHT22;1661;53.572;10.174;2023-02-21T14:43:51;11.30;79.50
3298;DHT22;1661;53.572;10.174;2023-02-21T14:46:49;11.50;80.70
3298;DHT22;1661;53.572;10.174;2023-02-21T14:50:02;11.50;80.90
3298;DHT22;1661;53.572;10.174;2023-02-21T14:55:34;11.60;79.20
3298;DHT22;1661;53.572;10.174;2023-02-21T15:01:41;11.40;80.70
3298;DHT22;1661;53.572;10.174;2023-02-21T15:04:16;11.40;80.10
3298;DHT22;1661;53.572;10.174;2023-02-21T15:06:57;11.30;79.60
3298;DHT22;1661;53.572;10.174;2023-02-21T15:09:25;11.20;79.90
3298;DHT22;1661;53.572;10.174;2023-02-21T15:11:52;11.20;81.80
3298;DHT22;1661;53.572;10.174;2023-02-21T15:14:24;11.30;82.40
3298;DHT22;1661;53.572;10.174;2023-02-21T15:17:12;11.30;80.90
3298;DHT22;1661;53.572;10.174;2023-02-21T15:19:39;11.10;81.00
3298;DHT22;1661;53.572;10.174;2023-02-21T15:22:19;11.20;82.60
3298;DHT22;1661;53.572;10.174;2023-02-21T15:25:13;11.20;82.70
3298;DHT22;1661;53.572;10.174;2023-02-21T15:27:58;11.20;82.10
3298;DHT22;1661;53.572;10.174;2023-02-21T15:30:29;11.30;82.40
3298;DHT22;1661;53.572;10.174;2023-02-21T15:32:59;11.40;81.80
3298;DHT22;1661;53.572;10.174;2023-02-21T15:35:31;11.40;81.70
3298;DHT22;1661;53.572;10.174;2023-02-21T15:38:02;11.30;82.10
3298;DHT22;1661;53.572;10.174;2023-02-21T15:40:30;11.30;82.00
3298;DHT22;1661;53.572;10.174;2023-02-21T15:42:57;11.30;82.70
3298;DHT22;1661;53.572;10.174;2023-02-21T15:45:28;11.20;81.60
3298;DHT22;1661;53.572;10.174;2023-02-21T15:47:58;11.00;80.60
3298;DHT22;1661;53.572;10.174;2023-02-21T15:50:33;11.00;82.50
3298;DHT22;1661;53.572;10.174;2023-02-21T15:53:12;11.00;82.70
3298;DHT22;1661;53.572;10.174;2023-02-21T15:55:39;11.00;81.40
3298;DHT22;1661;53.572;10.174;2023-02-21T15:58:19;11.10;81.20
3298;DHT22;1661;53.572;10.174;2023-02-21T16:00:48;11.10;80.60
3298;DHT22;1661;53.572;10.174;2023-02-21T16:03:37;10.90;80.90
3298;DHT22;1661;53.572;10.174;2023-02-21T16:06:11;10.80;81.10
3298;DHT22;1661;53.572;10.174;2023-02-21T16:08:49;10.90;82.00
3298;DHT22;1661;53.572;10.174;2023-02-21T16:11:17;10.90;82.20
3298;DHT22;1661;53.572;10.174;2023-02-21T16:13:48;10.90;81.60
3298;DHT22;1661;53.572;10.174;2023-02-21T16:16:16;10.80;81.40
3298;DHT22;1661;53.572;10.174;2023-02-21T16:18:43;10.80;81.70
3298;DHT22;1661;53.572;10.174;2023-02-21T16:21:21;10.70;81.50
3298;DHT22;1661;53.572;10.174;2023-02-21T16:23:53;10.80;82.10
3298;DHT22;1661;53.572;10.174;2023-02-21T16:26:22;10.90;81.80
3298;DHT22;1661;53.572;10.174;2023-02-21T16:28:53;10.90;82.10
3298;DHT22;1661;53.572;10.174;2023-02-21T16:31:29;10.90;82.20
3298;DHT22;1661;53.572;10.174;2023-02-21T16:33:56;10.90;81.70
3298;DHT22;1661;53.572;10.174;2023-02-21T16:36:25;10.90;81.80
3298;DHT22;1661;53.572;10.174;2023-02-21T16:38:53;11.00;81.80
3298;DHT22;1661;53.572;10.174;2023-02-21T16:41:23;11.00;81.80
3298;DHT22;1661;53.572;10.174;2023-02-21T16:43:50;11.00;81.60
3298;DHT22;1661;53.572;10.174;2023-02-21T16:46:23;11.00;81.60
3298;DHT22;1661;53.572;10.174;2023-02-21T16:48:53;11.00;81.60
3298;DHT22;1661;53.572;10.174;2023-02-21T16:51:21;10.90;81.80
3298;DHT22;1661;53.572;10.174;2023-02-21T16:53:48;10.90;81.90
3298;DHT22;1661;53.572;10.174;2023-02-21T16:56:15;10.90;81.80
3298;DHT22;1661;53.572;10.174;2023-02-21T16:58:45;10.90;81.70
3298;DHT22;1661;53.572;10.174;2023-02-21T17:01:14;10.90;81.50